sensor_id;sensor_type;location;lat;lon;timestamp;pressure;altitude;pressure_sealevel;temperature;humidity
30338;BME280;17143;51.888;5.408;2023-07-31T00:03:45;100804.84;;;17.08;100.00
30338;BME280;17143;51.888;5.408;2023-07-31T00:18:48;100791.72;;;17.41;100.00
30338;BME280;17143;51.888;5.408;2023-07-31T00:33:50;100785.09;;;17.55;100.00
30338;BME280;17143;51.888;5.408;2023-07-31T00:48:52;100782.47;;;17.56;100.00
30338;BME280;17143;51.888;5.408;2023-07-31T01:03:54;100770.16;;;17.55;100.00
30338;BME280;17143;51.888;5.408;2023-07-31T01:18:56;100772.03;;;17.59;100.00
30338;BME280;17143;51.888;5.408;2023-07-31T01:34:01;100762.25;;;17.55;100.00
30338;BME280;17143;51.888;5.408;2023-07-31T01:49:03;100759.53;;;17.52;100.00
30338;BME280;17143;51.888;5.408;2023-07-31T02:04:05;100741.84;;;17.48;100.00
30338;BME280;17143;51.888;5.408;2023-07-31T02:19:07;100725.19;;;17.49;100.00
30338;BME280;17143;51.888;5.408;2023-07-31T02:34:09;100731.31;;;17.48;100.00
30338;BME280;17143;51.888;5.408;2023-07-31T02:49:11;100711.94;;;17.46;100.00
30338;BME280;17143;51.888;5.408;2023-07-31T03:04:13;100703.13;;;17.44;100.00
30338;BME280;17143;51.888;5.408;2023-07-31T03:19:15;100702.97;;;17.38;100.00
30338;BME280;17143;51.888;5.408;2023-07-31T03:34:17;100690.56;;;17.34;100.00
30338;BME280;17143;51.888;5.408;2023-07-31T03:49:19;100681.66;;;17.29;100.00
30338;BME280;17143;51.888;5.408;2023-07-31T04:04:22;100677.28;;;17.28;100.00
30338;BME280;17143;51.888;5.408;2023-07-31T04:19:24;100652.84;;;17.35;100.00
30338;BME280;17143;51.888;5.408;2023-07-31T04:34:26;100641.47;;;17.36;100.00
30338;BME280;17143;51.888;5.408;2023-07-31T04:49:28;100631.88;;;17.38;100.00
30338;BME280;17143;51.888;5.408;2023-07-31T05:04:30;100626.44;;;17.32;100.00
30338;BME280;17143;51.888;5.408;2023-07-31T05:19:32;100616.63;;;17.25;100.00
30338;BME280;17143;51.888;5.408;2023-07-31T05:34:34;100613.75;;;17.15;100.00
30338;BME280;17143;51.888;5.408;2023-07-31T05:49:35;100596.16;;;17.12;100.00
30338;BME280;17143;51.888;5.408;2023-07-31T06:04:37;100570.75;;;17.16;100.00
30338;BME280;17143;51.888;5.408;2023-07-31T06:19:39;100561.41;;;17.28;100.00
30338;BME280;17143;51.888;5.408;2023-07-31T06:34:41;100548.44;;;17.37;100.00
30338;BME280;17143;51.888;5.408;2023-07-31T06:49:44;100526.66;;;17.44;100.00
30338;BME280;17143;51.888;5.408;2023-07-31T07:04:46;100525.13;;;17.54;100.00
30338;BME280;17143;51.888;5.408;2023-07-31T07:19:48;100521.88;;;17.66;100.00
30338;BME280;17143;51.888;5.408;2023-07-31T07:34:50;100513.06;;;17.65;100.00
30338;BME280;17143;51.888;5.408;2023-07-31T07:49:52;100516.16;;;17.88;100.00
30338;BME280;17143;51.888;5.408;2023-07-31T08:04:54;100504.91;;;17.98;100.00
30338;BME280;17143;51.888;5.408;2023-07-31T08:19:56;100488.44;;;18.09;100.00
30338;BME280;17143;51.888;5.408;2023-07-31T08:34:58;100480.91;;;18.29;100.00
30338;BME280;17143;51.888;5.408;2023-07-31T08:50:00;100484.38;;;18.28;100.00
30338;BME280;17143;51.888;5.408;2023-07-31T09:05:04;100476.53;;;18.31;100.00
30338;BME280;17143;51.888;5.408;2023-07-31T09:20:18;100481.75;;;18.28;100.00
30338;BME280;17143;51.888;5.408;2023-07-31T09:35:21;100459.72;;;18.78;100.00
30338;BME280;17143;51.888;5.408;2023-07-31T09:50:24;100456.69;;;19.13;100.00
30338;BME280;17143;51.888;5.408;2023-07-31T10:05:30;100440.44;;;19.46;100.00
30338;BME280;17143;51.888;5.408;2023-07-31T10:20:33;100450.19;;;19.51;100.00
30338;BME280;17143;51.888;5.408;2023-07-31T10:35:35;100441.56;;;19.70;100.00
30338;BME280;17143;51.888;5.408;2023-07-31T10:50:45;100439.84;;;19.72;100.00
30338;BME280;17143;51.888;5.408;2023-07-31T11:05:50;100435.28;;;19.59;100.00
30338;BME280;17143;51.888;5.408;2023-07-31T11:20:53;100434.56;;;19.74;100.00
30338;BME280;17143;51.888;5.408;2023-07-31T11:35:55;100422.69;;;20.23;100.00
30338;BME280;17143;51.888;5.408;2023-07-31T11:50:59;100419.47;;;20.60;100.00
30338;BME280;17143;51.888;5.408;2023-07-31T12:06:01;100420.38;;;20.63;100.00
30338;BME280;17143;51.888;5.408;2023-07-31T12:21:04;100437.78;;;20.30;100.00
30338;BME280;17143;51.888;5.408;2023-07-31T12:36:09;100414.03;;;20.36;100.00
30338;BME280;17143;51.888;5.408;2023-07-31T12:51:11;100396.38;;;20.35;100.00
30338;BME280;17143;51.888;5.408;2023-07-31T13:06:14;100369.81;;;20.26;100.00
30338;BME280;17143;51.888;5.408;2023-07-31T13:21:16;100365.25;;;20.08;100.00
30338;BME280;17143;51.888;5.408;2023-07-31T13:36:18;100350.41;;;20.24;100.00
30338;BME280;17143;51.888;5.408;2023-07-31T13:51:20;100346.81;;;20.16;100.00
30338;BME280;17143;51.888;5.408;2023-07-31T14:06:22;100331.78;;;20.13;100.00
30338;BME280;17143;51.888;5.408;2023-07-31T14:21:24;100338.00;;;20.17;100.00
30338;BME280;17143;51.888;5.408;2023-07-31T14:36:26;100321.19;;;20.10;100.00
30338;BME280;17143;51.888;5.408;2023-07-31T14:51:28;100305.25;;;19.98;100.00
30338;BME280;17143;51.888;5.408;2023-07-31T15:06:30;100277.91;;;19.97;100.00
30338;BME280;17143;51.888;5.408;2023-07-31T15:21:32;100248.78;;;19.90;100.00
30338;BME280;17143;51.888;5.408;2023-07-31T15:36:34;100230.22;;;19.82;100.00
30338;BME280;17143;51.888;5.408;2023-07-31T15:51:36;100203.63;;;19.61;100.00
30338;BME280;17143;51.888;5.408;2023-07-31T16:06:38;100179.72;;;19.44;100.00
30338;BME280;17143;51.888;5.408;2023-07-31T16:21:40;100154.94;;;19.32;100.00
30338;BME280;17143;51.888;5.408;2023-07-31T16:36:42;100138.09;;;19.18;100.00
30338;BME280;17143;51.888;5.408;2023-07-31T16:51:45;100111.63;;;19.09;100.00
30338;BME280;17143;51.888;5.408;2023-07-31T17:06:47;100093.09;;;19.06;100.00
30338;BME280;17143;51.888;5.408;2023-07-31T17:21:49;100066.72;;;19.06;100.00
30338;BME280;17143;51.888;5.408;2023-07-31T17:36:51;100067.50;;;18.99;100.00
30338;BME280;17143;51.888;5.408;2023-07-31T17:51:53;100057.69;;;18.81;100.00
30338;BME280;17143;51.888;5.408;2023-07-31T18:06:55;100047.03;;;18.67;100.00
30338;BME280;17143;51.888;5.408;2023-07-31T18:21:57;100052.22;;;18.60;100.00
30338;BME280;17143;51.888;5.408;2023-07-31T18:36:59;100044.38;;;18.67;100.00
30338;BME280;17143;51.888;5.408;2023-07-31T18:52:01;100060.25;;;18.70;100.00
30338;BME280;17143;51.888;5.408;2023-07-31T19:07:03;99997.78;;;18.68;100.00
30338;BME280;17143;51.888;5.408;2023-07-31T19:22:07;99986.28;;;18.58;100.00
30338;BME280;17143;51.888;5.408;2023-07-31T19:37:09;99986.09;;;18.43;100.00
30338;BME280;17143;51.888;5.408;2023-07-31T19:52:11;99978.94;;;18.30;100.00
30338;BME280;17143;51.888;5.408;2023-07-31T20:07:13;99980.63;;;18.22;100.00
30338;BME280;17143;51.888;5.408;2023-07-31T20:22:15;99980.56;;;18.13;100.00
30338;BME280;17143;51.888;5.408;2023-07-31T20:37:17;99954.97;;;18.04;100.00
30338;BME280;17143;51.888;5.408;2023-07-31T20:52:19;99913.66;;;18.02;100.00
30338;BME280;17143;51.888;5.408;2023-07-31T21:07:21;99886.25;;;17.85;100.00
30338;BME280;17143;51.888;5.408;2023-07-31T21:22:23;99869.56;;;17.83;100.00
30338;BME280;17143;51.888;5.408;2023-07-31T21:37:25;99853.69;;;17.74;100.00
30338;BME280;17143;51.888;5.408;2023-07-31T21:52:27;99834.38;;;17.78;100.00
30338;BME280;17143;51.888;5.408;2023-07-31T22:07:29;99835.25;;;17.75;100.00
30338;BME280;17143;51.888;5.408;2023-07-31T22:22:31;99813.25;;;17.72;100.00
30338;BME280;17143;51.888;5.408;2023-07-31T22:37:33;99784.25;;;17.72;100.00
30338;BME280;17143;51.888;5.408;2023-07-31T22:52:35;99755.28;;;17.72;100.00
30338;BME280;17143;51.888;5.408;2023-07-31T23:07:37;99764.09;;;17.74;100.00
30338;BME280;17143;51.888;5.408;2023-07-31T23:22:39;99752.66;;;17.70;100.00
30338;BME280;17143;51.888;5.408;2023-07-31T23:37:41;99718.38;;;17.67;100.00
30338;BME280;17143;51.888;5.408;2023-07-31T23:52:43;99706.97;;;17.68;100.00
